createdAt,value
2019-03-25T00:03:49.711Z,67.34
2019-03-25T00:09:04.838Z,67.34
2019-03-25T00:14:03.298Z,67.69
2019-03-25T00:19:09.259Z,67.72
2019-03-25T00:24:15.084Z,67.79
2019-03-25T00:29:22.038Z,68.16
2019-03-25T00:34:28.039Z,68.33
2019-03-25T00:39:33.833Z,68.24
2019-03-25T00:44:39.568Z,68.65
2019-03-25T00:49:45.422Z,69.66
2019-03-25T00:54:52.189Z,69.59
2019-03-25T00:59:57.981Z,70.31
2019-03-25T01:05:03.867Z,70.89
2019-03-25T01:10:10.008Z,70.30
2019-03-25T01:15:15.752Z,70.70
2019-03-25T01:20:21.706Z,70.81
2019-03-25T01:25:27.546Z,70.90
2019-03-25T01:30:33.350Z,70.66
2019-03-25T01:35:39.094Z,70.50
2019-03-25T01:40:44.877Z,70.40
2019-03-25T01:45:50.611Z,70.31
2019-03-25T01:50:56.477Z,70.40
2019-03-25T01:56:02.425Z,70.64
2019-03-25T02:01:08.265Z,71.34
2019-03-25T02:06:14.044Z,71.42
2019-03-25T02:11:22.210Z,71.59
2019-03-25T02:16:31.033Z,72.19
2019-03-25T02:21:36.927Z,72.97
2019-03-25T02:26:42.850Z,72.38
2019-03-25T02:31:48.654Z,72.87
2019-03-25T02:36:54.429Z,72.00
2019-03-25T02:42:01.189Z,71.88
2019-03-25T02:47:06.919Z,71.67
2019-03-25T02:52:12.854Z,72.03
2019-03-25T02:57:18.970Z,72.52
2019-03-25T03:02:24.843Z,73.11
2019-03-25T03:07:30.578Z,72.79
2019-03-25T03:12:36.589Z,72.90
2019-03-25T03:17:42.324Z,73.54
2019-03-25T03:22:48.116Z,72.82
2019-03-25T03:27:53.883Z,72.60
2019-03-25T03:32:59.701Z,72.57
2019-03-25T03:38:05.510Z,72.30
2019-03-25T03:43:11.259Z,72.82
2019-03-25T03:48:17.486Z,72.63
2019-03-25T03:53:23.256Z,72.07
2019-03-25T03:58:31.152Z,72.68
2019-03-25T04:03:37.980Z,72.58
2019-03-25T04:08:44.157Z,72.69
2019-03-25T04:13:50.076Z,72.67
2019-03-25T04:18:55.876Z,72.62
2019-03-25T04:24:01.669Z,72.90
2019-03-25T04:29:07.409Z,72.18
2019-03-25T04:34:13.148Z,71.98
2019-03-25T04:39:18.903Z,73.15
2019-03-25T04:44:24.997Z,74.55
2019-03-25T04:49:30.825Z,73.92
2019-03-25T04:54:36.690Z,73.97
2019-03-25T04:59:42.651Z,73.78
2019-03-25T05:04:48.395Z,73.43
2019-03-25T05:09:54.154Z,73.86
2019-03-25T05:15:00.980Z,73.43
2019-03-25T05:20:07.352Z,73.47
2019-03-25T05:25:13.334Z,73.42
2019-03-25T05:30:19.453Z,73.79
2019-03-25T05:35:25.376Z,73.50
2019-03-25T05:40:31.254Z,73.72
2019-03-25T05:46:25.085Z,73.77
2019-03-25T05:51:30.830Z,74.34
2019-03-25T05:56:36.699Z,74.72
2019-03-25T06:01:44.230Z,74.77
2019-03-25T06:06:52.169Z,74.80
2019-03-25T06:11:57.728Z,74.59
2019-03-25T06:17:03.649Z,74.25
2019-03-25T06:22:09.384Z,74.15
2019-03-25T06:27:15.390Z,73.86
2019-03-25T06:32:21.244Z,75.50
2019-03-25T06:37:27.102Z,79.17
2019-03-25T06:42:32.948Z,80.46
2019-03-25T06:47:38.770Z,80.92
2019-03-25T06:52:44.978Z,82.07
2019-03-25T06:57:51.080Z,82.63
2019-03-25T07:02:56.948Z,83.39
2019-03-25T07:08:03.006Z,83.52
2019-03-25T07:13:09.182Z,84.04
2019-03-25T07:18:15.036Z,83.93
2019-03-25T07:23:21.081Z,83.65
2019-03-25T07:28:26.930Z,83.87
2019-03-25T07:33:32.855Z,82.99
2019-03-25T07:38:39.543Z,82.94
2019-03-25T07:43:45.385Z,82.08
2019-03-25T07:48:51.251Z,81.41
2019-03-25T07:53:57.096Z,80.89
2019-03-25T07:59:03.033Z,80.21
2019-03-25T08:04:09.769Z,79.51
2019-03-25T08:09:15.580Z,78.33
2019-03-25T08:14:21.415Z,78.33
2019-03-25T08:19:27.268Z,76.82
2019-03-25T08:24:33.403Z,75.28
2019-03-25T08:29:39.330Z,75.57
2019-03-25T08:34:45.601Z,75.74
2019-03-25T08:39:51.603Z,76.00
2019-03-25T08:44:57.421Z,75.23
2019-03-25T08:50:03.639Z,74.57
2019-03-25T08:55:10.006Z,72.86
2019-03-25T09:00:17.054Z,71.56
2019-03-25T09:05:23.887Z,71.48
2019-03-25T09:10:29.723Z,71.38
2019-03-25T09:15:35.527Z,71.95
2019-03-25T09:20:42.841Z,71.89
2019-03-25T09:25:48.639Z,71.94
2019-03-25T09:31:20.875Z,72.52
2019-03-25T09:36:27.041Z,76.17
2019-03-25T09:41:33.204Z,77.15
2019-03-25T09:46:39.066Z,77.81
2019-03-25T09:51:45.027Z,78.94
2019-03-25T09:56:53.750Z,79.85
2019-03-25T10:01:59.614Z,80.31
2019-03-25T10:07:05.465Z,80.26
2019-03-25T10:12:11.501Z,79.72
2019-03-25T10:17:17.263Z,80.45
2019-03-25T10:22:23.136Z,80.09
2019-03-25T10:27:28.962Z,79.34
2019-03-25T10:32:34.800Z,77.31
2019-03-25T10:37:41.393Z,75.10
2019-03-25T10:42:47.489Z,74.45
2019-03-25T10:47:53.278Z,73.42
2019-03-25T10:52:59.153Z,73.02
2019-03-25T10:58:05.298Z,74.09
2019-03-25T11:03:11.080Z,75.38
2019-03-25T11:08:17.244Z,75.01
2019-03-25T11:13:23.410Z,73.58
2019-03-25T11:18:29.258Z,73.65
2019-03-25T11:23:35.169Z,72.79
2019-03-25T11:28:41.104Z,71.68
2019-03-25T11:33:47.126Z,72.95
2019-03-25T11:38:53.999Z,77.15
2019-03-25T11:43:59.838Z,79.50
2019-03-25T11:49:05.749Z,77.86
2019-03-25T11:54:11.979Z,74.45
2019-03-25T11:59:18.783Z,71.16
2019-03-25T12:04:24.871Z,72.37
2019-03-25T12:09:30.665Z,73.97
2019-03-25T12:14:36.536Z,74.34
2019-03-25T12:19:42.339Z,68.74
2019-03-25T12:24:48.200Z,64.95
2019-03-25T12:29:53.959Z,61.14
2019-03-25T12:34:59.826Z,56.84
2019-03-25T12:40:07.970Z,54.50
2019-03-25T12:45:15.105Z,53.25
2019-03-25T12:50:21.000Z,53.44
2019-03-25T12:55:27.110Z,49.34
2019-03-25T13:00:51.217Z,48.59
2019-03-25T13:05:57.018Z,56.48
2019-03-25T13:11:03.132Z,53.23
2019-03-25T13:16:09.171Z,48.28
2019-03-25T13:21:15.558Z,53.00
2019-03-25T13:26:21.515Z,62.90
2019-03-25T13:31:27.540Z,61.50
2019-03-25T13:36:33.541Z,55.51
2019-03-25T13:41:40.474Z,50.65
2019-03-25T13:46:46.341Z,60.31
2019-03-25T13:51:52.308Z,62.37
2019-03-25T13:56:58.971Z,62.88
2019-03-25T14:02:05.290Z,65.71
2019-03-25T14:07:11.141Z,63.70
2019-03-25T14:12:17.032Z,65.22
2019-03-25T14:17:22.914Z,68.27
2019-03-25T14:22:28.865Z,69.52
2019-03-25T14:27:34.687Z,65.98
2019-03-25T14:32:40.606Z,68.58
2019-03-25T14:37:46.502Z,69.08
2019-03-25T14:42:52.806Z,66.28
2019-03-25T14:47:58.600Z,65.05
2019-03-25T14:53:04.457Z,64.93
2019-03-25T14:58:10.705Z,64.79
2019-03-25T15:03:16.522Z,66.05
2019-03-25T15:08:22.631Z,67.24
2019-03-25T15:13:28.493Z,67.78
2019-03-25T15:18:35.010Z,68.26
2019-03-25T15:23:40.827Z,69.74
2019-03-25T15:28:46.604Z,70.99
2019-03-25T15:33:54.006Z,73.69
2019-03-25T15:38:59.912Z,74.18
2019-03-25T15:44:05.817Z,75.99
2019-03-25T15:49:11.574Z,74.34
2019-03-25T15:54:17.441Z,75.58
2019-03-25T15:59:23.403Z,75.30
2019-03-25T16:04:30.015Z,75.12
2019-03-25T16:09:35.880Z,75.41
2019-03-25T16:14:41.667Z,75.50
2019-03-25T16:19:47.604Z,74.77
2019-03-25T16:24:53.644Z,75.61
2019-03-25T16:30:00.558Z,77.12
2019-03-25T16:35:06.755Z,77.53
2019-03-25T16:40:12.612Z,77.99
2019-03-25T16:45:18.537Z,79.43
2019-03-25T16:50:24.439Z,79.41
2019-03-25T16:55:30.520Z,80.26
2019-03-25T17:00:36.356Z,80.05
2019-03-25T17:05:42.565Z,80.35
2019-03-25T17:10:48.516Z,81.19
2019-03-25T17:15:54.645Z,81.63
2019-03-25T17:21:01.470Z,81.71
2019-03-25T17:26:07.204Z,81.53
2019-03-25T17:31:20.949Z,82.16
2019-03-25T17:36:23.720Z,82.00
2019-03-25T17:41:31.265Z,82.67
2019-03-25T17:46:37.080Z,82.82
2019-03-25T17:51:43.127Z,82.75
2019-03-25T17:56:49.061Z,83.43
2019-03-25T18:01:54.944Z,83.81
2019-03-25T18:07:00.831Z,83.74
2019-03-25T18:12:06.775Z,84.23
2019-03-25T18:17:12.548Z,84.28
2019-03-25T18:22:18.316Z,84.92
2019-03-25T18:27:24.385Z,85.23
2019-03-25T18:32:30.483Z,85.54
2019-03-25T18:37:36.275Z,85.82
2019-03-25T18:42:42.453Z,85.78
2019-03-25T18:47:48.507Z,85.45
2019-03-25T18:52:56.731Z,84.53
2019-03-25T18:58:01.887Z,84.10
2019-03-25T19:03:07.851Z,83.14
2019-03-25T19:08:13.961Z,84.14
2019-03-25T19:13:19.902Z,83.38
2019-03-25T19:18:26.030Z,84.14
2019-03-25T19:23:31.816Z,83.89
2019-03-25T19:28:37.825Z,84.07
2019-03-25T19:33:44.009Z,84.31
2019-03-25T19:38:50.985Z,84.08
2019-03-25T19:43:57.081Z,83.73
2019-03-25T19:49:03.062Z,84.42
2019-03-25T19:54:09.053Z,84.21
2019-03-25T19:59:15.191Z,84.18
2019-03-25T20:04:21.411Z,83.76
2019-03-25T20:09:27.927Z,83.28
2019-03-25T20:14:33.960Z,82.91
2019-03-25T20:19:41.994Z,82.95
2019-03-25T20:24:47.797Z,84.96
2019-03-25T20:29:54.447Z,81.10
2019-03-25T20:35:00.672Z,81.21
2019-03-25T20:40:07.677Z,81.40
2019-03-25T20:45:14.250Z,80.94
2019-03-25T20:50:20.629Z,80.77
2019-03-25T20:55:26.434Z,80.51
2019-03-25T21:01:12.596Z,80.59
2019-03-25T21:06:19.760Z,80.42
2019-03-25T21:11:25.682Z,81.81
2019-03-25T21:16:32.263Z,82.88
2019-03-25T21:21:39.030Z,80.93
2019-03-25T21:26:45.635Z,79.93
2019-03-25T21:31:53.091Z,82.63
2019-03-25T21:37:00.556Z,81.02
2019-03-25T21:42:06.900Z,81.04
2019-03-25T21:47:13.246Z,81.10
2019-03-25T21:52:19.152Z,81.85
2019-03-25T21:57:25.151Z,81.42
2019-03-25T22:02:30.923Z,81.40
2019-03-25T22:07:37.166Z,81.41
2019-03-25T22:12:43.006Z,81.47
2019-03-25T22:17:49.074Z,81.68
2019-03-25T22:22:55.053Z,82.67
2019-03-25T22:28:01.069Z,82.57
2019-03-25T22:33:07.515Z,82.63
2019-03-25T22:38:14.699Z,82.63
2019-03-25T22:43:20.772Z,82.73
2019-03-25T22:48:27.358Z,82.73
2019-03-25T22:53:33.364Z,82.95
2019-03-25T22:58:41.716Z,82.93
2019-03-25T23:03:47.751Z,82.86
2019-03-25T23:08:54.426Z,83.09
2019-03-25T23:14:00.621Z,83.17
2019-03-25T23:19:06.772Z,83.14
2019-03-25T23:24:12.850Z,82.87
2019-03-25T23:29:18.824Z,82.85
2019-03-25T23:34:25.154Z,82.23
2019-03-25T23:39:31.284Z,81.78
2019-03-25T23:44:37.809Z,81.74
2019-03-25T23:49:43.653Z,81.66
2019-03-25T23:54:49.462Z,81.42
2019-03-25T23:59:55.418Z,81.28
